sensor_id;sensor_type;location;lat;lon;timestamp;pressure;altitude;pressure_sealevel;temperature;humidity
4617;BME280;2321;42.704;23.384;2024-01-15T00:00:53;94916.25;;;-3.42;100.00
4617;BME280;2321;42.704;23.384;2024-01-15T00:03:19;94906.91;;;-3.45;100.00
4617;BME280;2321;42.704;23.384;2024-01-15T00:05:46;94900.16;;;-3.47;100.00
4617;BME280;2321;42.704;23.384;2024-01-15T00:08:13;94907.22;;;-3.50;100.00
4617;BME280;2321;42.704;23.384;2024-01-15T00:10:41;94903.94;;;-3.52;100.00
4617;BME280;2321;42.704;23.384;2024-01-15T00:13:08;94901.22;;;-3.50;100.00
4617;BME280;2321;42.704;23.384;2024-01-15T00:15:34;94902.38;;;-3.54;100.00
4617;BME280;2321;42.704;23.384;2024-01-15T00:18:01;94893.03;;;-3.57;100.00
4617;BME280;2321;42.704;23.384;2024-01-15T00:20:28;94899.31;;;-3.59;100.00
4617;BME280;2321;42.704;23.384;2024-01-15T00:22:55;94898.13;;;-3.55;100.00
4617;BME280;2321;42.704;23.384;2024-01-15T00:25:21;94904.63;;;-3.61;100.00
4617;BME280;2321;42.704;23.384;2024-01-15T00:27:50;94908.19;;;-3.62;100.00
4617;BME280;2321;42.704;23.384;2024-01-15T00:30:17;94906.63;;;-3.65;100.00
4617;BME280;2321;42.704;23.384;2024-01-15T00:32:43;94903.22;;;-3.65;100.00
4617;BME280;2321;42.704;23.384;2024-01-15T00:35:10;94897.41;;;-3.69;100.00
4617;BME280;2321;42.704;23.384;2024-01-15T00:37:37;94908.97;;;-3.73;100.00
4617;BME280;2321;42.704;23.384;2024-01-15T00:40:05;94906.28;;;-3.72;100.00
4617;BME280;2321;42.704;23.384;2024-01-15T00:42:33;94907.91;;;-3.70;100.00
4617;BME280;2321;42.704;23.384;2024-01-15T00:45:01;94905.69;;;-3.75;100.00
4617;BME280;2321;42.704;23.384;2024-01-15T00:47:28;94902.84;;;-3.72;100.00
4617;BME280;2321;42.704;23.384;2024-01-15T00:49:54;94907.91;;;-3.70;100.00
4617;BME280;2321;42.704;23.384;2024-01-15T00:52:21;94901.88;;;-3.83;100.00
4617;BME280;2321;42.704;23.384;2024-01-15T00:54:48;94903.63;;;-3.83;100.00
4617;BME280;2321;42.704;23.384;2024-01-15T00:57:14;94902.69;;;-3.82;100.00
4617;BME280;2321;42.704;23.384;2024-01-15T00:59:41;94901.88;;;-3.83;100.00
4617;BME280;2321;42.704;23.384;2024-01-15T01:02:09;94897.50;;;-3.82;100.00
4617;BME280;2321;42.704;23.384;2024-01-15T01:04:36;94904.59;;;-3.84;100.00
4617;BME280;2321;42.704;23.384;2024-01-15T01:07:03;94899.94;;;-3.92;100.00
4617;BME280;2321;42.704;23.384;2024-01-15T01:09:30;94898.53;;;-3.96;100.00
4617;BME280;2321;42.704;23.384;2024-01-15T01:11:56;94895.81;;;-3.95;100.00
4617;BME280;2321;42.704;23.384;2024-01-15T01:14:23;94901.16;;;-3.96;100.00
4617;BME280;2321;42.704;23.384;2024-01-15T01:16:50;94893.34;;;-3.96;100.00
4617;BME280;2321;42.704;23.384;2024-01-15T01:19:18;94895.22;;;-3.98;100.00
4617;BME280;2321;42.704;23.384;2024-01-15T01:21:45;94896.28;;;-4.01;100.00
4617;BME280;2321;42.704;23.384;2024-01-15T01:24:11;94889.19;;;-3.99;100.00
4617;BME280;2321;42.704;23.384;2024-01-15T01:26:38;94889.19;;;-3.99;100.00
4617;BME280;2321;42.704;23.384;2024-01-15T01:29:05;94891.81;;;-3.99;100.00
4617;BME280;2321;42.704;23.384;2024-01-15T01:31:32;94892.75;;;-4.00;100.00
4617;BME280;2321;42.704;23.384;2024-01-15T01:33:59;94885.16;;;-4.03;100.00
4617;BME280;2321;42.704;23.384;2024-01-15T01:36:27;94880.28;;;-4.08;100.00
4617;BME280;2321;42.704;23.384;2024-01-15T01:38:53;94874.28;;;-4.08;100.00
4617;BME280;2321;42.704;23.384;2024-01-15T01:41:20;94883.94;;;-4.10;100.00
4617;BME280;2321;42.704;23.384;2024-01-15T01:43:49;94870.47;;;-4.16;100.00
4617;BME280;2321;42.704;23.384;2024-01-15T01:46:16;94875.91;;;-4.19;100.00
4617;BME280;2321;42.704;23.384;2024-01-15T01:48:43;94875.91;;;-4.19;100.00
4617;BME280;2321;42.704;23.384;2024-01-15T01:51:09;94869.38;;;-4.24;100.00
4617;BME280;2321;42.704;23.384;2024-01-15T01:53:39;94866.78;;;-4.24;100.00
4617;BME280;2321;42.704;23.384;2024-01-15T01:56:05;94873.75;;;-4.25;100.00
4617;BME280;2321;42.704;23.384;2024-01-15T01:58:32;94866.19;;;-4.28;100.00
4617;BME280;2321;42.704;23.384;2024-01-15T02:00:59;94869.72;;;-4.29;100.00
4617;BME280;2321;42.704;23.384;2024-01-15T02:03:26;94858.84;;;-4.34;100.00
4617;BME280;2321;42.704;23.384;2024-01-15T02:05:53;94857.19;;;-4.35;100.00
4617;BME280;2321;42.704;23.384;2024-01-15T02:08:20;94857.50;;;-4.40;100.00
4617;BME280;2321;42.704;23.384;2024-01-15T02:10:48;94860.25;;;-4.42;100.00
4617;BME280;2321;42.704;23.384;2024-01-15T02:13:15;94857.13;;;-4.47;100.00
4617;BME280;2321;42.704;23.384;2024-01-15T02:15:42;94846.97;;;-4.50;100.00
4617;BME280;2321;42.704;23.384;2024-01-15T02:18:09;94846.59;;;-4.57;100.00
4617;BME280;2321;42.704;23.384;2024-01-15T02:20:35;94838.69;;;-4.55;100.00
4617;BME280;2321;42.704;23.384;2024-01-15T02:23:13;94831.00;;;-4.57;100.00
4617;BME280;2321;42.704;23.384;2024-01-15T02:25:40;94825.81;;;-4.57;100.00
4617;BME280;2321;42.704;23.384;2024-01-15T02:28:09;94822.59;;;-4.61;100.00
4617;BME280;2321;42.704;23.384;2024-01-15T02:30:37;94815.88;;;-4.63;100.00
4617;BME280;2321;42.704;23.384;2024-01-15T02:33:04;94797.41;;;-4.72;100.00
4617;BME280;2321;42.704;23.384;2024-01-15T02:35:31;94792.19;;;-4.72;100.00
4617;BME280;2321;42.704;23.384;2024-01-15T02:37:58;94792.19;;;-4.72;100.00
4617;BME280;2321;42.704;23.384;2024-01-15T02:40:26;94791.13;;;-4.69;100.00
4617;BME280;2321;42.704;23.384;2024-01-15T02:42:53;94793.41;;;-4.64;100.00
4617;BME280;2321;42.704;23.384;2024-01-15T02:45:19;94795.88;;;-4.63;100.00
4617;BME280;2321;42.704;23.384;2024-01-15T02:47:46;94803.34;;;-4.58;100.00
4617;BME280;2321;42.704;23.384;2024-01-15T02:50:13;94794.72;;;-4.59;100.00
4617;BME280;2321;42.704;23.384;2024-01-15T02:52:41;94795.66;;;-4.60;100.00
4617;BME280;2321;42.704;23.384;2024-01-15T02:55:08;94796.28;;;-4.56;100.00
4617;BME280;2321;42.704;23.384;2024-01-15T02:57:36;94795.13;;;-4.52;100.00
4617;BME280;2321;42.704;23.384;2024-01-15T03:00:03;94797.59;;;-4.50;100.00
4617;BME280;2321;42.704;23.384;2024-01-15T03:02:30;94787.91;;;-4.48;100.00
4617;BME280;2321;42.704;23.384;2024-01-15T03:04:57;94785.19;;;-4.46;100.00
4617;BME280;2321;42.704;23.384;2024-01-15T03:07:24;94790.38;;;-4.46;100.00
4617;BME280;2321;42.704;23.384;2024-01-15T03:09:51;94798.78;;;-4.43;100.00
4617;BME280;2321;42.704;23.384;2024-01-15T03:12:17;94800.34;;;-4.40;100.00
4617;BME280;2321;42.704;23.384;2024-01-15T03:14:46;94785.44;;;-4.38;100.00
4617;BME280;2321;42.704;23.384;2024-01-15T03:17:12;94785.44;;;-4.38;100.00
4617;BME280;2321;42.704;23.384;2024-01-15T03:19:39;94787.34;;;-4.40;100.00
4617;BME280;2321;42.704;23.384;2024-01-15T03:22:06;94774.47;;;-4.42;100.00
4617;BME280;2321;42.704;23.384;2024-01-15T03:24:34;94788.28;;;-4.41;100.00
4617;BME280;2321;42.704;23.384;2024-01-15T03:27:00;94779.53;;;-4.40;100.00
4617;BME280;2321;42.704;23.384;2024-01-15T03:29:26;94774.25;;;-4.39;100.00
4617;BME280;2321;42.704;23.384;2024-01-15T03:31:54;94775.88;;;-4.38;100.00
4617;BME280;2321;42.704;23.384;2024-01-15T03:34:21;94770.69;;;-4.38;100.00
4617;BME280;2321;42.704;23.384;2024-01-15T03:36:48;94765.97;;;-4.32;100.00
4617;BME280;2321;42.704;23.384;2024-01-15T03:39:15;94761.34;;;-4.40;100.00
4617;BME280;2321;42.704;23.384;2024-01-15T03:41:41;94763.94;;;-4.40;100.00
4617;BME280;2321;42.704;23.384;2024-01-15T03:44:08;94755.81;;;-4.35;100.00
4617;BME280;2321;42.704;23.384;2024-01-15T03:46:35;94759.59;;;-4.40;100.00
4617;BME280;2321;42.704;23.384;2024-01-15T03:49:03;94761.81;;;-4.46;100.00
4617;BME280;2321;42.704;23.384;2024-01-15T03:51:30;94768.22;;;-4.39;100.00
4617;BME280;2321;42.704;23.384;2024-01-15T03:53:56;94759.22;;;-4.35;100.00
4617;BME280;2321;42.704;23.384;2024-01-15T03:56:23;94769.16;;;-4.29;100.00
4617;BME280;2321;42.704;23.384;2024-01-15T03:58:50;94769.06;;;-4.27;100.00
4617;BME280;2321;42.704;23.384;2024-01-15T04:01:16;94760.06;;;-4.23;100.00
4617;BME280;2321;42.704;23.384;2024-01-15T04:03:43;94749.78;;;-4.24;100.00
4617;BME280;2321;42.704;23.384;2024-01-15T04:06:11;94756.16;;;-4.29;100.00
4617;BME280;2321;42.704;23.384;2024-01-15T04:08:38;94752.25;;;-4.23;100.00
4617;BME280;2321;42.704;23.384;2024-01-15T04:11:05;94740.47;;;-4.27;100.00
4617;BME280;2321;42.704;23.384;2024-01-15T04:13:32;94742.94;;;-4.26;100.00
4617;BME280;2321;42.704;23.384;2024-01-15T04:15:59;94738.56;;;-4.25;100.00
4617;BME280;2321;42.704;23.384;2024-01-15T04:18:26;94741.28;;;-4.15;100.00
4617;BME280;2321;42.704;23.384;2024-01-15T04:20:53;94745.19;;;-4.09;100.00
4617;BME280;2321;42.704;23.384;2024-01-15T04:23:21;94746.03;;;-4.09;100.00
4617;BME280;2321;42.704;23.384;2024-01-15T04:25:48;94748.63;;;-4.09;100.00
4617;BME280;2321;42.704;23.384;2024-01-15T04:28:14;94743.44;;;-4.09;100.00
4617;BME280;2321;42.704;23.384;2024-01-15T04:30:41;94739.53;;;-4.14;100.00
4617;BME280;2321;42.704;23.384;2024-01-15T04:33:08;94747.56;;;-4.06;100.00
4617;BME280;2321;42.704;23.384;2024-01-15T04:35:35;94741.28;;;-4.03;100.00
4617;BME280;2321;42.704;23.384;2024-01-15T04:38:01;94735.25;;;-4.04;100.00
4617;BME280;2321;42.704;23.384;2024-01-15T04:40:29;94743.78;;;-4.02;100.00
4617;BME280;2321;42.704;23.384;2024-01-15T04:42:56;94736.00;;;-4.02;100.00
4617;BME280;2321;42.704;23.384;2024-01-15T04:45:23;94720.84;;;-4.20;100.00
4617;BME280;2321;42.704;23.384;2024-01-15T04:47:53;94737.84;;;-4.04;100.00
4617;BME280;2321;42.704;23.384;2024-01-15T04:50:20;94734.44;;;-4.05;100.00
4617;BME280;2321;42.704;23.384;2024-01-15T04:52:47;94728.44;;;-4.05;100.00
4617;BME280;2321;42.704;23.384;2024-01-15T04:55:14;94731.72;;;-4.03;100.00
4617;BME280;2321;42.704;23.384;2024-01-15T04:57:42;94731.59;;;-4.01;100.00
4617;BME280;2321;42.704;23.384;2024-01-15T05:00:09;94735.38;;;-4.06;100.00
4617;BME280;2321;42.704;23.384;2024-01-15T05:02:37;94717.75;;;-4.13;100.00
4617;BME280;2321;42.704;23.384;2024-01-15T05:05:04;94724.25;;;-4.31;100.00
4617;BME280;2321;42.704;23.384;2024-01-15T05:07:30;94723.91;;;-4.38;100.00
4617;BME280;2321;42.704;23.384;2024-01-15T05:09:57;94740.94;;;-4.33;100.00
4617;BME280;2321;42.704;23.384;2024-01-15T05:12:24;94725.09;;;-4.30;100.00
4617;BME280;2321;42.704;23.384;2024-01-15T05:14:52;94727.69;;;-4.30;100.00
4617;BME280;2321;42.704;23.384;2024-01-15T05:17:19;94718.00;;;-4.28;100.00
4617;BME280;2321;42.704;23.384;2024-01-15T05:19:46;94713.50;;;-4.26;100.00
4617;BME280;2321;42.704;23.384;2024-01-15T05:22:12;94706.19;;;-4.21;100.00
4617;BME280;2321;42.704;23.384;2024-01-15T05:24:39;94712.09;;;-4.19;100.00
4617;BME280;2321;42.704;23.384;2024-01-15T05:27:06;94710.19;;;-4.17;100.00
4617;BME280;2321;42.704;23.384;2024-01-15T05:29:33;94708.91;;;-4.22;100.00
4617;BME280;2321;42.704;23.384;2024-01-15T05:32:01;94709.13;;;-4.37;100.00
4617;BME280;2321;42.704;23.384;2024-01-15T05:34:27;94714.56;;;-4.40;100.00
4617;BME280;2321;42.704;23.384;2024-01-15T05:36:54;94698.03;;;-4.39;100.00
4617;BME280;2321;42.704;23.384;2024-01-15T05:39:21;94706.16;;;-4.44;100.00
4617;BME280;2321;42.704;23.384;2024-01-15T05:41:48;94700.25;;;-4.46;100.00
4617;BME280;2321;42.704;23.384;2024-01-15T05:44:14;94683.47;;;-4.53;100.00
4617;BME280;2321;42.704;23.384;2024-01-15T05:46:40;94700.38;;;-4.48;100.00
4617;BME280;2321;42.704;23.384;2024-01-15T05:49:08;94692.69;;;-4.49;100.00
4617;BME280;2321;42.704;23.384;2024-01-15T05:51:35;94689.16;;;-4.48;100.00
4617;BME280;2321;42.704;23.384;2024-01-15T05:54:02;94687.13;;;-4.44;100.00
4617;BME280;2321;42.704;23.384;2024-01-15T05:56:29;94678.19;;;-4.40;100.00
4617;BME280;2321;42.704;23.384;2024-01-15T05:58:55;94670.75;;;-4.33;100.00
4617;BME280;2321;42.704;23.384;2024-01-15T06:01:22;94669.06;;;-4.34;100.00
4617;BME280;2321;42.704;23.384;2024-01-15T06:03:49;94672.75;;;-4.26;100.00
4617;BME280;2321;42.704;23.384;2024-01-15T06:06:17;94693.53;;;-4.26;100.00
4617;BME280;2321;42.704;23.384;2024-01-15T06:08:44;94702.63;;;-4.31;100.00
4617;BME280;2321;42.704;23.384;2024-01-15T06:11:10;94718.00;;;-4.28;100.00
4617;BME280;2321;42.704;23.384;2024-01-15T06:13:37;94712.34;;;-4.33;100.00
4617;BME280;2321;42.704;23.384;2024-01-15T06:16:11;94695.91;;;-4.34;100.00
4617;BME280;2321;42.704;23.384;2024-01-15T06:18:38;94688.34;;;-4.49;100.00
4617;BME280;2321;42.704;23.384;2024-01-15T06:21:05;94690.44;;;-4.54;100.00
4617;BME280;2321;42.704;23.384;2024-01-15T06:23:33;94686.91;;;-4.53;100.00
4617;BME280;2321;42.704;23.384;2024-01-15T06:26:00;94689.16;;;-4.48;100.00
4617;BME280;2321;42.704;23.384;2024-01-15T06:28:29;94682.91;;;-4.34;100.00
4617;BME280;2321;42.704;23.384;2024-01-15T06:30:55;94666.94;;;-4.29;100.00
4617;BME280;2321;42.704;23.384;2024-01-15T06:33:22;94662.09;;;-4.22;100.00
4617;BME280;2321;42.704;23.384;2024-01-15T06:35:49;94677.69;;;-4.11;100.00
4617;BME280;2321;42.704;23.384;2024-01-15T06:38:15;94683.38;;;-4.06;100.00
4617;BME280;2321;42.704;23.384;2024-01-15T06:40:44;94695.78;;;-3.98;100.00
4617;BME280;2321;42.704;23.384;2024-01-15T06:43:13;94690.69;;;-3.88;100.00
4617;BME280;2321;42.704;23.384;2024-01-15T06:45:40;94691.16;;;-3.83;100.00
4617;BME280;2321;42.704;23.384;2024-01-15T06:48:07;94683.59;;;-3.74;100.00
4617;BME280;2321;42.704;23.384;2024-01-15T06:50:34;94688.63;;;-3.61;100.00
4617;BME280;2321;42.704;23.384;2024-01-15T06:53:01;94688.13;;;-3.55;100.00
4617;BME280;2321;42.704;23.384;2024-01-15T06:55:27;94695.47;;;-3.48;100.00
4617;BME280;2321;42.704;23.384;2024-01-15T06:57:55;94689.97;;;-3.34;100.00
4617;BME280;2321;42.704;23.384;2024-01-15T07:00:22;94695.97;;;-3.22;100.00
4617;BME280;2321;42.704;23.384;2024-01-15T07:02:49;94704.31;;;-3.07;100.00
4617;BME280;2321;42.704;23.384;2024-01-15T07:05:16;94704.38;;;-2.97;100.00
4617;BME280;2321;42.704;23.384;2024-01-15T07:07:42;94714.63;;;-2.83;100.00
4617;BME280;2321;42.704;23.384;2024-01-15T07:10:09;94686.41;;;-2.78;100.00
4617;BME280;2321;42.704;23.384;2024-01-15T07:12:36;94709.63;;;-2.75;100.00
4617;BME280;2321;42.704;23.384;2024-01-15T07:15:05;94692.63;;;-2.69;100.00
4617;BME280;2321;42.704;23.384;2024-01-15T07:17:33;94674.03;;;-2.65;100.00
4617;BME280;2321;42.704;23.384;2024-01-15T07:20:00;94694.94;;;-2.55;100.00
4617;BME280;2321;42.704;23.384;2024-01-15T07:22:27;94695.38;;;-2.49;100.00
4617;BME280;2321;42.704;23.384;2024-01-15T07:24:54;94706.94;;;-2.42;100.00
4617;BME280;2321;42.704;23.384;2024-01-15T07:27:20;94715.06;;;-2.35;100.00
4617;BME280;2321;42.704;23.384;2024-01-15T07:29:47;94707.00;;;-2.32;100.00
4617;BME280;2321;42.704;23.384;2024-01-15T07:32:15;94702.34;;;-2.28;100.00
4617;BME280;2321;42.704;23.384;2024-01-15T07:34:42;94690.56;;;-2.23;100.00
4617;BME280;2321;42.704;23.384;2024-01-15T07:37:09;94680.81;;;-2.21;100.00
4617;BME280;2321;42.704;23.384;2024-01-15T07:39:35;94668.44;;;-2.28;100.00
4617;BME280;2321;42.704;23.384;2024-01-15T07:42:02;94674.59;;;-2.30;100.00
4617;BME280;2321;42.704;23.384;2024-01-15T07:44:29;94680.53;;;-2.27;100.00
4617;BME280;2321;42.704;23.384;2024-01-15T07:46:56;94696.72;;;-2.24;100.00
4617;BME280;2321;42.704;23.384;2024-01-15T07:49:24;94707.47;;;-2.17;100.00
4617;BME280;2321;42.704;23.384;2024-01-15T07:51:51;94706.84;;;-2.09;100.00
4617;BME280;2321;42.704;23.384;2024-01-15T07:54:17;94686.22;;;-2.12;100.00
4617;BME280;2321;42.704;23.384;2024-01-15T07:56:54;94706.13;;;-2.11;100.00
4617;BME280;2321;42.704;23.384;2024-01-15T07:59:21;94704.66;;;-2.04;100.00
4617;BME280;2321;42.704;23.384;2024-01-15T08:01:47;94701.78;;;-2.01;100.00
4617;BME280;2321;42.704;23.384;2024-01-15T08:04:14;94701.09;;;-1.93;100.00
4617;BME280;2321;42.704;23.384;2024-01-15T08:06:42;94661.31;;;-1.85;100.00
4617;BME280;2321;42.704;23.384;2024-01-15T08:09:10;94671.22;;;-1.79;100.00
4617;BME280;2321;42.704;23.384;2024-01-15T08:11:39;94662.59;;;-1.69;100.00
4617;BME280;2321;42.704;23.384;2024-01-15T08:14:05;94674.00;;;-1.60;100.00
4617;BME280;2321;42.704;23.384;2024-01-15T08:16:32;94656.94;;;-1.75;100.00
4617;BME280;2321;42.704;23.384;2024-01-15T08:18:59;94690.94;;;-1.45;100.00
4617;BME280;2321;42.704;23.384;2024-01-15T08:21:26;94690.16;;;-1.35;100.00
4617;BME280;2321;42.704;23.384;2024-01-15T08:23:56;94682.56;;;-1.28;100.00
4617;BME280;2321;42.704;23.384;2024-01-15T08:26:23;94685.72;;;-1.25;100.00
4617;BME280;2321;42.704;23.384;2024-01-15T08:28:50;94690.28;;;-1.17;100.00
4617;BME280;2321;42.704;23.384;2024-01-15T08:31:16;94709.13;;;-1.13;100.00
4617;BME280;2321;42.704;23.384;2024-01-15T08:33:43;94695.25;;;-1.14;100.00
4617;BME280;2321;42.704;23.384;2024-01-15T08:36:10;94692.75;;;-1.15;100.00
4617;BME280;2321;42.704;23.384;2024-01-15T08:38:37;94686.16;;;-1.10;100.00
4617;BME280;2321;42.704;23.384;2024-01-15T08:41:05;94660.31;;;-1.13;100.00
4617;BME280;2321;42.704;23.384;2024-01-15T08:43:33;94664.69;;;-1.03;100.00
4617;BME280;2321;42.704;23.384;2024-01-15T08:46:00;94653.97;;;-0.90;100.00
4617;BME280;2321;42.704;23.384;2024-01-15T08:48:27;94656.31;;;-0.77;100.00
4617;BME280;2321;42.704;23.384;2024-01-15T08:50:54;94664.94;;;-0.67;100.00
4617;BME280;2321;42.704;23.384;2024-01-15T08:53:21;94642.22;;;-0.66;100.00
4617;BME280;2321;42.704;23.384;2024-01-15T08:55:48;94647.47;;;-0.66;100.00
4617;BME280;2321;42.704;23.384;2024-01-15T08:58:16;94649.78;;;-0.63;100.00
4617;BME280;2321;42.704;23.384;2024-01-15T09:00:43;94645.50;;;-0.54;100.00
4617;BME280;2321;42.704;23.384;2024-01-15T09:03:09;94637.34;;;-0.41;100.00
4617;BME280;2321;42.704;23.384;2024-01-15T09:05:37;94615.84;;;-0.35;100.00
4617;BME280;2321;42.704;23.384;2024-01-15T09:08:04;94612.09;;;-0.22;100.00
4617;BME280;2321;42.704;23.384;2024-01-15T09:10:30;94624.97;;;-0.10;100.00
4617;BME280;2321;42.704;23.384;2024-01-15T09:12:57;94632.63;;;0.01;100.00
4617;BME280;2321;42.704;23.384;2024-01-15T09:15:26;94620.34;;;0.12;100.00
4617;BME280;2321;42.704;23.384;2024-01-15T09:17:54;94600.13;;;0.22;100.00
4617;BME280;2321;42.704;23.384;2024-01-15T09:20:22;94585.19;;;0.32;100.00
4617;BME280;2321;42.704;23.384;2024-01-15T09:22:49;94583.19;;;0.45;100.00
4617;BME280;2321;42.704;23.384;2024-01-15T09:25:16;94586.41;;;0.57;100.00
4617;BME280;2321;42.704;23.384;2024-01-15T09:27:43;94577.63;;;0.66;100.00
4617;BME280;2321;42.704;23.384;2024-01-15T09:30:10;94569.53;;;0.78;100.00
4617;BME280;2321;42.704;23.384;2024-01-15T09:32:39;94570.13;;;0.90;100.00
4617;BME280;2321;42.704;23.384;2024-01-15T09:35:06;94585.75;;;1.00;100.00
4617;BME280;2321;42.704;23.384;2024-01-15T09:37:32;94572.81;;;0.98;99.56
4617;BME280;2321;42.704;23.384;2024-01-15T09:39:59;94567.06;;;0.94;98.61
4617;BME280;2321;42.704;23.384;2024-01-15T09:42:26;94549.53;;;0.95;99.47
4617;BME280;2321;42.704;23.384;2024-01-15T09:44:54;94541.28;;;0.90;100.00
4617;BME280;2321;42.704;23.384;2024-01-15T09:47:21;94550.81;;;0.91;100.00
4617;BME280;2321;42.704;23.384;2024-01-15T09:49:51;94538.66;;;0.90;100.00
4617;BME280;2321;42.704;23.384;2024-01-15T09:52:18;94534.84;;;0.84;100.00
4617;BME280;2321;42.704;23.384;2024-01-15T09:54:45;94527.59;;;0.78;100.00
4617;BME280;2321;42.704;23.384;2024-01-15T09:57:12;94517.59;;;0.73;100.00
4617;BME280;2321;42.704;23.384;2024-01-15T09:59:39;94508.25;;;0.70;100.00
4617;BME280;2321;42.704;23.384;2024-01-15T10:02:08;94495.28;;;0.69;100.00
4617;BME280;2321;42.704;23.384;2024-01-15T10:04:38;94493.63;;;0.68;100.00
4617;BME280;2321;42.704;23.384;2024-01-15T10:07:06;94510.69;;;0.72;100.00
4617;BME280;2321;42.704;23.384;2024-01-15T10:09:34;94525.97;;;0.77;100.00
4617;BME280;2321;42.704;23.384;2024-01-15T10:12:01;94504.84;;;0.78;100.00
4617;BME280;2321;42.704;23.384;2024-01-15T10:14:28;94493.03;;;0.74;100.00
4617;BME280;2321;42.704;23.384;2024-01-15T10:16:55;94479.56;;;0.69;100.00
4617;BME280;2321;42.704;23.384;2024-01-15T10:19:22;94471.56;;;0.70;100.00
4617;BME280;2321;42.704;23.384;2024-01-15T10:21:49;94473.06;;;0.73;100.00
4617;BME280;2321;42.704;23.384;2024-01-15T10:24:17;94473.66;;;0.67;100.00
4617;BME280;2321;42.704;23.384;2024-01-15T10:26:44;94462.97;;;0.60;100.00
4617;BME280;2321;42.704;23.384;2024-01-15T10:29:11;94461.47;;;0.57;100.00
4617;BME280;2321;42.704;23.384;2024-01-15T10:31:37;94463.78;;;0.60;100.00
4617;BME280;2321;42.704;23.384;2024-01-15T10:34:10;94454.97;;;0.61;100.00
4617;BME280;2321;42.704;23.384;2024-01-15T10:36:40;94454.16;;;0.61;100.00
4617;BME280;2321;42.704;23.384;2024-01-15T10:39:07;94458.91;;;0.65;100.00
4617;BME280;2321;42.704;23.384;2024-01-15T10:41:35;94444.38;;;0.71;100.00
4617;BME280;2321;42.704;23.384;2024-01-15T10:44:02;94442.47;;;0.82;100.00
4617;BME280;2321;42.704;23.384;2024-01-15T10:46:29;94441.03;;;0.88;100.00
4617;BME280;2321;42.704;23.384;2024-01-15T10:48:57;94425.00;;;0.91;100.00
4617;BME280;2321;42.704;23.384;2024-01-15T10:51:23;94436.00;;;0.94;100.00
4617;BME280;2321;42.704;23.384;2024-01-15T10:53:51;94435.06;;;1.04;100.00
4617;BME280;2321;42.704;23.384;2024-01-15T10:56:20;94427.38;;;1.11;100.00
4617;BME280;2321;42.704;23.384;2024-01-15T10:58:49;94425.44;;;1.21;100.00
4617;BME280;2321;42.704;23.384;2024-01-15T11:01:16;94412.22;;;1.39;100.00
4617;BME280;2321;42.704;23.384;2024-01-15T11:03:45;94413.22;;;1.38;100.00
4617;BME280;2321;42.704;23.384;2024-01-15T11:06:18;94418.50;;;1.47;100.00
4617;BME280;2321;42.704;23.384;2024-01-15T11:08:46;94417.03;;;1.61;100.00
4617;BME280;2321;42.704;23.384;2024-01-15T11:11:15;94407.38;;;1.70;100.00
4617;BME280;2321;42.704;23.384;2024-01-15T11:13:42;94403.97;;;1.78;100.00
4617;BME280;2321;42.704;23.384;2024-01-15T11:16:11;94411.84;;;1.86;100.00
4617;BME280;2321;42.704;23.384;2024-01-15T11:18:39;94393.47;;;1.94;100.00
4617;BME280;2321;42.704;23.384;2024-01-15T11:21:22;94390.84;;;2.03;100.00
4617;BME280;2321;42.704;23.384;2024-01-15T11:23:49;94394.78;;;2.07;100.00
4617;BME280;2321;42.704;23.384;2024-01-15T11:29:00;94375.88;;;2.37;99.31
4617;BME280;2321;42.704;23.384;2024-01-15T11:31:55;94382.28;;;2.51;99.27
4617;BME280;2321;42.704;23.384;2024-01-15T11:34:17;94374.69;;;2.65;97.05
4617;BME280;2321;42.704;23.384;2024-01-15T11:37:00;94377.28;;;2.73;95.00
4617;BME280;2321;42.704;23.384;2024-01-15T11:39:39;94365.13;;;2.80;94.89
4617;BME280;2321;42.704;23.384;2024-01-15T11:42:07;94383.81;;;2.86;95.36
4617;BME280;2321;42.704;23.384;2024-01-15T11:44:34;94375.59;;;2.97;94.40
4617;BME280;2321;42.704;23.384;2024-01-15T11:47:03;94366.50;;;3.08;93.60
4617;BME280;2321;42.704;23.384;2024-01-15T11:49:32;94363.81;;;3.16;91.16
4617;BME280;2321;42.704;23.384;2024-01-15T11:52:03;94375.47;;;3.22;89.13
4617;BME280;2321;42.704;23.384;2024-01-15T11:54:31;94373.31;;;3.26;86.98
4617;BME280;2321;42.704;23.384;2024-01-15T11:57:00;94365.28;;;3.28;87.59
4617;BME280;2321;42.704;23.384;2024-01-15T11:59:28;94359.81;;;3.29;86.30
4617;BME280;2321;42.704;23.384;2024-01-15T12:01:55;94349.16;;;3.31;87.07
4617;BME280;2321;42.704;23.384;2024-01-15T12:04:24;94343.06;;;3.30;88.11
4617;BME280;2321;42.704;23.384;2024-01-15T12:06:51;94340.91;;;3.34;90.06
4617;BME280;2321;42.704;23.384;2024-01-15T12:09:19;94342.19;;;3.38;90.46
4617;BME280;2321;42.704;23.384;2024-01-15T12:11:48;94343.63;;;3.41;89.24
4617;BME280;2321;42.704;23.384;2024-01-15T12:14:17;94348.41;;;3.45;86.43
4617;BME280;2321;42.704;23.384;2024-01-15T12:16:45;94349.03;;;3.47;86.60
4617;BME280;2321;42.704;23.384;2024-01-15T12:19:11;94327.34;;;3.45;87.38
4617;BME280;2321;42.704;23.384;2024-01-15T12:21:40;94325.53;;;3.46;87.77
4617;BME280;2321;42.704;23.384;2024-01-15T12:24:07;94323.38;;;3.50;86.75
4617;BME280;2321;42.704;23.384;2024-01-15T12:26:33;94320.56;;;3.51;87.44
4617;BME280;2321;42.704;23.384;2024-01-15T12:29:01;94321.88;;;3.55;88.53
4617;BME280;2321;42.704;23.384;2024-01-15T12:31:29;94308.50;;;3.57;85.66
4617;BME280;2321;42.704;23.384;2024-01-15T12:33:56;94311.50;;;3.54;85.53
4617;BME280;2321;42.704;23.384;2024-01-15T12:36:23;94313.13;;;3.55;85.51
4617;BME280;2321;42.704;23.384;2024-01-15T12:38:51;94306.22;;;3.54;86.18
4617;BME280;2321;42.704;23.384;2024-01-15T12:41:18;94298.81;;;3.57;89.05
4617;BME280;2321;42.704;23.384;2024-01-15T12:43:47;94295.34;;;3.57;88.97
4617;BME280;2321;42.704;23.384;2024-01-15T12:46:14;94299.44;;;3.59;88.52
4617;BME280;2321;42.704;23.384;2024-01-15T12:48:40;94298.94;;;3.64;89.61
4617;BME280;2321;42.704;23.384;2024-01-15T12:51:07;94301.22;;;3.67;89.32
4617;BME280;2321;42.704;23.384;2024-01-15T12:53:34;94274.94;;;3.59;89.73
4617;BME280;2321;42.704;23.384;2024-01-15T12:56:02;94281.88;;;3.75;90.05
4617;BME280;2321;42.704;23.384;2024-01-15T12:58:29;94278.63;;;3.73;89.90
4617;BME280;2321;42.704;23.384;2024-01-15T13:00:56;94276.81;;;3.74;90.26
4617;BME280;2321;42.704;23.384;2024-01-15T13:03:23;94278.06;;;3.78;90.09
4617;BME280;2321;42.704;23.384;2024-01-15T13:05:50;94274.72;;;3.84;90.21
4617;BME280;2321;42.704;23.384;2024-01-15T13:08:17;94277.56;;;3.83;87.81